sensor_id;sensor_type;location;lat;lon;timestamp;pressure;altitude;pressure_sealevel;temperature;humidity
29417;BME280;28421;51.030;4.006;2023-01-29T00:02:00;103138.25;;;-2.05;80.00
29417;BME280;28421;51.030;4.006;2023-01-29T00:04:26;103148.94;;;-2.11;79.95
29417;BME280;28421;51.030;4.006;2023-01-29T00:06:51;103095.97;;;-2.39;79.74
29417;BME280;28421;51.030;4.006;2023-01-29T00:09:17;103118.66;;;-2.32;79.87
29417;BME280;28421;51.030;4.006;2023-01-29T00:11:43;103102.22;;;-2.43;79.71
29417;BME280;28421;51.030;4.006;2023-01-29T00:14:09;103091.91;;;-2.54;79.74
29417;BME280;28421;51.030;4.006;2023-01-29T00:16:34;103139.53;;;-2.23;79.95
29417;BME280;28421;51.030;4.006;2023-01-29T00:19:00;103069.97;;;-2.55;79.78
29417;BME280;28421;51.030;4.006;2023-01-29T00:21:26;103095.06;;;-2.38;80.00
29417;BME280;28421;51.030;4.006;2023-01-29T00:23:53;103100.97;;;-2.27;79.45
29417;BME280;28421;51.030;4.006;2023-01-29T00:26:19;103105.56;;;-2.37;79.78
29417;BME280;28421;51.030;4.006;2023-01-29T00:28:46;103088.19;;;-2.44;79.76
29417;BME280;28421;51.030;4.006;2023-01-29T00:31:15;103136.91;;;-2.25;79.91
29417;BME280;28421;51.030;4.006;2023-01-29T05:35:51;103010.34;;;0.73;78.17
29417;BME280;28421;51.030;4.006;2023-01-29T05:38:17;103021.00;;;0.71;78.37
29417;BME280;28421;51.030;4.006;2023-01-29T05:40:43;103013.81;;;0.75;78.06
29417;BME280;28421;51.030;4.006;2023-01-29T05:43:35;102955.88;;;0.42;77.65
29417;BME280;28421;51.030;4.006;2023-01-29T05:46:00;102973.53;;;0.65;77.91
29417;BME280;28421;51.030;4.006;2023-01-29T05:48:27;103007.03;;;0.91;77.42
29417;BME280;28421;51.030;4.006;2023-01-29T05:50:53;102979.16;;;0.81;77.26
29417;BME280;28421;51.030;4.006;2023-01-29T05:53:18;103003.78;;;1.07;76.73
29417;BME280;28421;51.030;4.006;2023-01-29T05:55:45;103011.56;;;1.11;76.88
29417;BME280;28421;51.030;4.006;2023-01-29T05:58:10;103012.38;;;1.13;76.48
29417;BME280;28421;51.030;4.006;2023-01-29T06:00:36;103017.91;;;1.31;76.57
29417;BME280;28421;51.030;4.006;2023-01-29T06:03:02;102973.63;;;0.87;76.63
29417;BME280;28421;51.030;4.006;2023-01-29T06:05:27;102976.44;;;1.06;76.64
29417;BME280;28421;51.030;4.006;2023-01-29T06:07:53;102951.56;;;0.87;76.83
29417;BME280;28421;51.030;4.006;2023-01-29T06:10:18;103000.94;;;1.13;76.83
29417;BME280;28421;51.030;4.006;2023-01-29T06:12:44;102998.22;;;1.14;76.97
29417;BME280;28421;51.030;4.006;2023-01-29T06:15:10;103015.31;;;1.29;76.79
29417;BME280;28421;51.030;4.006;2023-01-29T06:17:36;102951.47;;;0.90;76.57
29417;BME280;28421;51.030;4.006;2023-01-29T06:20:02;103015.38;;;1.28;76.37
29417;BME280;28421;51.030;4.006;2023-01-29T06:22:28;103016.81;;;1.13;76.64
29417;BME280;28421;51.030;4.006;2023-01-29T06:24:53;102980.06;;;1.04;76.67
29417;BME280;28421;51.030;4.006;2023-01-29T06:27:19;103005.94;;;1.20;76.65
29417;BME280;28421;51.030;4.006;2023-01-29T06:29:44;102960.66;;;1.03;76.59
29417;BME280;28421;51.030;4.006;2023-01-29T06:32:09;102958.09;;;1.02;76.19
29417;BME280;28421;51.030;4.006;2023-01-29T06:34:35;102985.53;;;1.22;76.08
29417;BME280;28421;51.030;4.006;2023-01-29T06:37:02;102992.56;;;1.23;76.65
29417;BME280;28421;51.030;4.006;2023-01-29T06:39:27;102979.75;;;1.13;76.51
29417;BME280;28421;51.030;4.006;2023-01-29T06:41:53;103011.63;;;1.33;76.55
29417;BME280;28421;51.030;4.006;2023-01-29T06:44:18;102993.66;;;1.18;76.76
29417;BME280;28421;51.030;4.006;2023-01-29T06:46:43;102959.91;;;0.99;76.68
29417;BME280;28421;51.030;4.006;2023-01-29T06:49:09;102960.91;;;0.73;77.66
29417;BME280;28421;51.030;4.006;2023-01-29T06:51:34;102966.19;;;0.97;77.41
29417;BME280;28421;51.030;4.006;2023-01-29T06:54:00;102979.75;;;1.13;76.84
29417;BME280;28421;51.030;4.006;2023-01-29T06:56:25;102943.22;;;0.97;76.75
29417;BME280;28421;51.030;4.006;2023-01-29T06:58:51;102998.28;;;1.13;77.28
29417;BME280;28421;51.030;4.006;2023-01-29T07:01:16;102932.13;;;0.64;77.55
29417;BME280;28421;51.030;4.006;2023-01-29T07:03:42;102934.00;;;0.61;78.14
29417;BME280;28421;51.030;4.006;2023-01-29T07:06:07;102927.97;;;0.57;78.25
29417;BME280;28421;51.030;4.006;2023-01-29T07:08:37;102955.03;;;0.89;78.10
29417;BME280;28421;51.030;4.006;2023-01-29T07:11:03;102977.59;;;0.99;78.10
29417;BME280;28421;51.030;4.006;2023-01-29T07:13:29;102984.56;;;1.02;77.85
29417;BME280;28421;51.030;4.006;2023-01-29T07:16:02;102987.22;;;1.02;77.94
29417;BME280;28421;51.030;4.006;2023-01-29T07:18:28;102991.41;;;1.07;78.01
29417;BME280;28421;51.030;4.006;2023-01-29T07:20:54;102994.53;;;1.18;77.84
29417;BME280;28421;51.030;4.006;2023-01-29T07:23:19;102966.03;;;1.02;77.52
29417;BME280;28421;51.030;4.006;2023-01-29T07:25:45;102992.63;;;1.22;77.66
29417;BME280;28421;51.030;4.006;2023-01-29T07:28:17;102947.66;;;0.97;77.45
29417;BME280;28421;51.030;4.006;2023-01-29T07:30:43;102963.09;;;1.09;77.37
29417;BME280;28421;51.030;4.006;2023-01-29T07:33:09;102973.44;;;1.15;77.14
29417;BME280;28421;51.030;4.006;2023-01-29T07:35:39;102974.81;;;1.26;77.20
29417;BME280;28421;51.030;4.006;2023-01-29T07:38:06;102984.81;;;1.41;76.34
29417;BME280;28421;51.030;4.006;2023-01-29T07:40:32;102938.50;;;1.06;76.15
29417;BME280;28421;51.030;4.006;2023-01-29T07:43:03;102960.66;;;1.27;76.12
29417;BME280;28421;51.030;4.006;2023-01-29T07:45:33;102986.59;;;1.40;76.40
29417;BME280;28421;51.030;4.006;2023-01-29T07:47:59;102988.81;;;1.29;76.60
29417;BME280;28421;51.030;4.006;2023-01-29T07:50:25;102995.25;;;1.45;76.24
29417;BME280;28421;51.030;4.006;2023-01-29T07:52:53;102933.13;;;1.07;76.39
29417;BME280;28421;51.030;4.006;2023-01-29T07:55:18;102983.91;;;1.42;76.28
29417;BME280;28421;51.030;4.006;2023-01-29T07:57:44;102964.81;;;1.32;76.36
29417;BME280;28421;51.030;4.006;2023-01-29T08:00:10;102952.03;;;1.21;76.33
29417;BME280;28421;51.030;4.006;2023-01-29T08:02:40;102998.13;;;1.61;75.94
29417;BME280;28421;51.030;4.006;2023-01-29T08:05:06;102966.69;;;1.52;75.97
29417;BME280;28421;51.030;4.006;2023-01-29T08:07:31;103003.75;;;1.76;75.56
29417;BME280;28421;51.030;4.006;2023-01-29T08:09:57;103007.16;;;1.79;76.08
29417;BME280;28421;51.030;4.006;2023-01-29T08:12:22;102982.75;;;1.71;75.76
29417;BME280;28421;51.030;4.006;2023-01-29T08:14:48;102969.16;;;1.79;75.32
29417;BME280;28421;51.030;4.006;2023-01-29T08:17:14;102983.13;;;1.82;75.36
29417;BME280;28421;51.030;4.006;2023-01-29T08:19:39;102924.78;;;1.40;75.31
29417;BME280;28421;51.030;4.006;2023-01-29T08:22:05;102982.78;;;1.69;75.44
29417;BME280;28421;51.030;4.006;2023-01-29T08:24:31;102980.75;;;1.76;75.38
29417;BME280;28421;51.030;4.006;2023-01-29T08:26:56;102998.00;;;1.86;75.32
29417;BME280;28421;51.030;4.006;2023-01-29T08:29:22;102981.41;;;1.81;75.19
29417;BME280;28421;51.030;4.006;2023-01-29T08:31:47;102948.66;;;1.62;74.97
29417;BME280;28421;51.030;4.006;2023-01-29T08:34:13;102978.38;;;1.90;74.90
29417;BME280;28421;51.030;4.006;2023-01-29T08:36:39;102948.38;;;1.68;74.26
29417;BME280;28421;51.030;4.006;2023-01-29T08:39:04;102978.72;;;2.03;74.23
29417;BME280;28421;51.030;4.006;2023-01-29T08:41:29;102977.69;;;2.07;74.45
29417;BME280;28421;51.030;4.006;2023-01-29T08:43:55;102957.91;;;1.94;74.08
29417;BME280;28421;51.030;4.006;2023-01-29T08:46:22;102971.31;;;2.11;74.54
29417;BME280;28421;51.030;4.006;2023-01-29T08:48:47;102951.16;;;1.87;74.52
29417;BME280;28421;51.030;4.006;2023-01-29T08:51:13;102934.41;;;1.85;74.96
29417;BME280;28421;51.030;4.006;2023-01-29T08:53:38;102965.97;;;2.13;74.55
29417;BME280;28421;51.030;4.006;2023-01-29T08:56:04;102946.44;;;2.14;74.29
29417;BME280;28421;51.030;4.006;2023-01-29T08:58:29;102982.34;;;2.43;73.95
29417;BME280;28421;51.030;4.006;2023-01-29T09:00:55;102968.81;;;2.29;73.88
29417;BME280;28421;51.030;4.006;2023-01-29T09:03:20;102933.91;;;2.38;73.28
29417;BME280;28421;51.030;4.006;2023-01-29T09:05:46;102923.75;;;2.27;72.98
29417;BME280;28421;51.030;4.006;2023-01-29T09:08:11;102955.38;;;2.52;73.16
29417;BME280;28421;51.030;4.006;2023-01-29T09:10:37;102944.13;;;2.27;73.94
29417;BME280;28421;51.030;4.006;2023-01-29T09:13:03;102922.88;;;2.06;73.69
29417;BME280;28421;51.030;4.006;2023-01-29T09:15:29;102962.44;;;2.12;73.59
29417;BME280;28421;51.030;4.006;2023-01-29T09:17:54;102920.03;;;1.90;74.03
29417;BME280;28421;51.030;4.006;2023-01-29T09:20:20;102936.16;;;2.06;73.94
29417;BME280;28421;51.030;4.006;2023-01-29T09:22:46;102963.03;;;2.19;73.86
29417;BME280;28421;51.030;4.006;2023-01-29T09:25:12;102984.91;;;2.44;73.39
29417;BME280;28421;51.030;4.006;2023-01-29T09:27:37;102964.22;;;2.32;73.50
29417;BME280;28421;51.030;4.006;2023-01-29T09:30:04;102965.09;;;2.33;73.56
29417;BME280;28421;51.030;4.006;2023-01-29T09:32:30;102959.81;;;2.33;73.69
29417;BME280;28421;51.030;4.006;2023-01-29T09:34:56;102966.00;;;2.32;73.89
29417;BME280;28421;51.030;4.006;2023-01-29T09:37:22;102954.34;;;2.36;73.91
29417;BME280;28421;51.030;4.006;2023-01-29T09:39:48;102960.59;;;2.35;73.93
29417;BME280;28421;51.030;4.006;2023-01-29T09:42:32;102973.72;;;2.38;74.17
29417;BME280;28421;51.030;4.006;2023-01-29T09:45:15;102924.16;;;2.18;74.01
29417;BME280;28421;51.030;4.006;2023-01-29T09:47:46;102971.31;;;2.52;73.92
29417;BME280;28421;51.030;4.006;2023-01-29T09:50:17;102970.25;;;2.56;74.28
29417;BME280;28421;51.030;4.006;2023-01-29T09:52:58;102967.06;;;2.48;74.35
29417;BME280;28421;51.030;4.006;2023-01-29T09:55:28;102928.06;;;2.30;74.27
29417;BME280;28421;51.030;4.006;2023-01-29T09:58:05;102960.56;;;2.55;74.25
29417;BME280;28421;51.030;4.006;2023-01-29T10:00:43;102916.31;;;2.35;74.28
29417;BME280;28421;51.030;4.006;2023-01-29T10:06:04;102937.50;;;2.76;73.42
29417;BME280;28421;51.030;4.006;2023-01-29T10:14:13;102961.66;;;3.28;72.14
29417;BME280;28421;51.030;4.006;2023-01-29T10:17:05;102944.97;;;3.24;72.19
29417;BME280;28421;51.030;4.006;2023-01-29T10:23:00;102936.25;;;3.40;71.93
29417;BME280;28421;51.030;4.006;2023-01-29T10:25:30;102914.78;;;3.44;71.53
29417;BME280;28421;51.030;4.006;2023-01-29T10:27:58;102883.47;;;3.13;70.79
29417;BME280;28421;51.030;4.006;2023-01-29T10:30:33;102953.38;;;3.70;70.99
29417;BME280;28421;51.030;4.006;2023-01-29T10:33:03;102946.72;;;3.79;70.48
29417;BME280;28421;51.030;4.006;2023-01-29T10:35:42;102932.09;;;3.70;70.63
29417;BME280;28421;51.030;4.006;2023-01-29T10:38:26;102939.47;;;3.83;70.17
29417;BME280;28421;51.030;4.006;2023-01-29T10:41:03;102938.84;;;3.95;70.26
29417;BME280;28421;51.030;4.006;2023-01-29T10:46:52;102921.75;;;3.64;69.47
29417;BME280;28421;51.030;4.006;2023-01-29T10:54:39;102929.91;;;3.96;69.13
29417;BME280;28421;51.030;4.006;2023-01-29T10:57:17;102887.72;;;3.71;69.47
29417;BME280;28421;51.030;4.006;2023-01-29T11:02:20;102893.66;;;3.93;68.85
29417;BME280;28421;51.030;4.006;2023-01-29T11:04:47;102874.81;;;3.81;69.40
29417;BME280;28421;51.030;4.006;2023-01-29T11:07:15;102859.63;;;3.83;68.77
29417;BME280;28421;51.030;4.006;2023-01-29T11:09:53;102860.66;;;3.80;68.73
29417;BME280;28421;51.030;4.006;2023-01-29T11:12:28;102845.34;;;4.01;68.91
29417;BME280;28421;51.030;4.006;2023-01-29T11:15:06;102887.00;;;4.19;69.03
29417;BME280;28421;51.030;4.006;2023-01-29T11:17:39;102824.41;;;3.95;68.55
29417;BME280;28421;51.030;4.006;2023-01-29T11:20:26;102870.91;;;4.38;68.36
29417;BME280;28421;51.030;4.006;2023-01-29T11:22:54;102825.47;;;4.08;68.57
29417;BME280;28421;51.030;4.006;2023-01-29T11:25:21;102819.44;;;4.05;68.47
29417;BME280;28421;51.030;4.006;2023-01-29T11:27:49;102854.31;;;4.33;68.42
29417;BME280;28421;51.030;4.006;2023-01-29T11:30:23;102856.41;;;4.44;68.15
29417;BME280;28421;51.030;4.006;2023-01-29T11:33:05;102847.63;;;4.42;68.17
29417;BME280;28421;51.030;4.006;2023-01-29T11:35:32;102847.03;;;4.68;67.63
29417;BME280;28421;51.030;4.006;2023-01-29T11:38:29;102846.13;;;4.69;67.09
29417;BME280;28421;51.030;4.006;2023-01-29T11:41:05;102841.06;;;4.65;67.16
29417;BME280;28421;51.030;4.006;2023-01-29T11:43:31;102826.25;;;4.59;66.67
29417;BME280;28421;51.030;4.006;2023-01-29T11:46:12;102811.63;;;4.51;66.99
29417;BME280;28421;51.030;4.006;2023-01-29T11:48:41;102822.44;;;4.47;67.24
29417;BME280;28421;51.030;4.006;2023-01-29T11:51:09;102822.03;;;4.55;66.77
29417;BME280;28421;51.030;4.006;2023-01-29T11:53:39;102770.97;;;4.31;66.71
29417;BME280;28421;51.030;4.006;2023-01-29T11:57:01;102788.16;;;4.26;66.20
29417;BME280;28421;51.030;4.006;2023-01-29T11:59:01;102773.84;;;3.95;67.04
29417;BME280;28421;51.030;4.006;2023-01-29T12:01:34;102787.53;;;4.20;67.35
29417;BME280;28421;51.030;4.006;2023-01-29T12:04:01;102754.22;;;3.80;66.46
29417;BME280;28421;51.030;4.006;2023-01-29T12:06:36;102819.94;;;3.95;67.04
29417;BME280;28421;51.030;4.006;2023-01-29T12:09:17;102759.03;;;3.89;67.14
29417;BME280;28421;51.030;4.006;2023-01-29T12:11:44;102765.72;;;4.14;67.19
29417;BME280;28421;51.030;4.006;2023-01-29T12:14:29;102799.88;;;4.55;66.86
29417;BME280;28421;51.030;4.006;2023-01-29T12:17:10;102799.28;;;4.65;66.37
29417;BME280;28421;51.030;4.006;2023-01-29T12:19:43;102774.88;;;4.57;66.36
29417;BME280;28421;51.030;4.006;2023-01-29T12:22:20;102787.72;;;4.81;66.45
29417;BME280;28421;51.030;4.006;2023-01-29T12:25:06;102771.50;;;4.69;66.15
29417;BME280;28421;51.030;4.006;2023-01-29T12:27:52;102729.75;;;4.54;65.89
29417;BME280;28421;51.030;4.006;2023-01-29T12:30:50;102755.06;;;4.93;66.07
29417;BME280;28421;51.030;4.006;2023-01-29T12:33:28;102756.97;;;4.75;65.99
29417;BME280;28421;51.030;4.006;2023-01-29T12:36:08;102720.81;;;4.39;65.60
29417;BME280;28421;51.030;4.006;2023-01-29T12:38:36;102751.41;;;4.48;65.43
29417;BME280;28421;51.030;4.006;2023-01-29T12:41:23;102739.44;;;4.71;65.61
29417;BME280;28421;51.030;4.006;2023-01-29T12:43:55;102714.44;;;4.58;65.39
29417;BME280;28421;51.030;4.006;2023-01-29T12:46:33;102713.16;;;4.65;64.80
29417;BME280;28421;51.030;4.006;2023-01-29T12:49:04;102695.06;;;4.40;65.42
29417;BME280;28421;51.030;4.006;2023-01-29T12:51:41;102716.06;;;4.60;65.71
29417;BME280;28421;51.030;4.006;2023-01-29T12:54:16;102673.97;;;4.35;65.58
29417;BME280;28421;51.030;4.006;2023-01-29T12:56:50;102715.31;;;4.42;65.35
29417;BME280;28421;51.030;4.006;2023-01-29T12:59:33;102672.88;;;4.08;65.77
29417;BME280;28421;51.030;4.006;2023-01-29T13:02:12;102714.63;;;4.39;65.79
29417;BME280;28421;51.030;4.006;2023-01-29T13:04:47;102671.25;;;4.21;66.42
29417;BME280;28421;51.030;4.006;2023-01-29T13:07:26;102653.22;;;4.26;66.11
29417;BME280;28421;51.030;4.006;2023-01-29T13:10:00;102700.75;;;4.64;66.37
29417;BME280;28421;51.030;4.006;2023-01-29T13:12:28;102690.47;;;4.58;65.77
29417;BME280;28421;51.030;4.006;2023-01-29T13:14:58;102634.84;;;4.06;65.95
29417;BME280;28421;51.030;4.006;2023-01-29T13:17:40;102601.78;;;3.94;66.01
29417;BME280;28421;51.030;4.006;2023-01-29T13:20:16;102681.69;;;4.56;66.12
29417;BME280;28421;51.030;4.006;2023-01-29T13:22:45;102670.78;;;4.60;66.20
29417;BME280;28421;51.030;4.006;2023-01-29T13:25:15;102654.13;;;4.57;66.46
29417;BME280;28421;51.030;4.006;2023-01-29T13:27:42;102616.56;;;4.61;66.12
29417;BME280;28421;51.030;4.006;2023-01-29T13:30:23;102616.19;;;4.67;65.91
29417;BME280;28421;51.030;4.006;2023-01-29T13:32:51;102631.84;;;4.73;65.95
29417;BME280;28421;51.030;4.006;2023-01-29T13:35:20;102635.59;;;4.85;65.70
29417;BME280;28421;51.030;4.006;2023-01-29T13:37:51;102598.06;;;4.74;65.31
29417;BME280;28421;51.030;4.006;2023-01-29T13:40:24;102637.41;;;4.99;65.37
29417;BME280;28421;51.030;4.006;2023-01-29T13:42:52;102601.00;;;4.69;65.38
29417;BME280;28421;51.030;4.006;2023-01-29T13:45:34;102620.78;;;4.80;65.48
29417;BME280;28421;51.030;4.006;2023-01-29T13:48:18;102634.81;;;4.83;65.71
29417;BME280;28421;51.030;4.006;2023-01-29T13:50:45;102600.31;;;4.66;65.65
29417;BME280;28421;51.030;4.006;2023-01-29T13:53:24;102622.16;;;4.87;66.19
29417;BME280;28421;51.030;4.006;2023-01-29T13:55:50;102596.78;;;4.65;66.06
29417;BME280;28421;51.030;4.006;2023-01-29T14:00:58;102595.97;;;4.79;65.66
29417;BME280;28421;51.030;4.006;2023-01-29T14:13:48;102600.59;;;4.76;66.57
29417;BME280;28421;51.030;4.006;2023-01-29T14:18:48;102568.22;;;4.67;66.58
29417;BME280;28421;51.030;4.006;2023-01-29T14:21:24;102607.53;;;5.08;65.87
29417;BME280;28421;51.030;4.006;2023-01-29T14:23:58;102606.84;;;5.05;66.05
29417;BME280;28421;51.030;4.006;2023-01-29T14:31:36;102589.50;;;4.97;65.68
29417;BME280;28421;51.030;4.006;2023-01-29T14:34:11;102536.41;;;4.36;66.00
29417;BME280;28421;51.030;4.006;2023-01-29T14:36:39;102596.06;;;4.78;66.15
29417;BME280;28421;51.030;4.006;2023-01-29T14:39:15;102598.13;;;4.72;66.76
29417;BME280;28421;51.030;4.006;2023-01-29T14:41:43;102570.47;;;4.45;66.84
29417;BME280;28421;51.030;4.006;2023-01-29T14:50:00;102611.44;;;4.42;66.74
29417;BME280;28421;51.030;4.006;2023-01-29T14:52:38;102559.53;;;4.19;67.31
29417;BME280;28421;51.030;4.006;2023-01-29T14:55:27;102558.03;;;4.30;67.49
29417;BME280;28421;51.030;4.006;2023-01-29T14:57:55;102543.97;;;4.28;67.47
29417;BME280;28421;51.030;4.006;2023-01-29T15:00:30;102546.22;;;4.19;67.73
29417;BME280;28421;51.030;4.006;2023-01-29T15:02:57;102575.53;;;4.49;67.82
29417;BME280;28421;51.030;4.006;2023-01-29T15:05:26;102544.69;;;3.99;68.30
29417;BME280;28421;51.030;4.006;2023-01-29T15:07:56;102548.25;;;4.30;68.28
29417;BME280;28421;51.030;4.006;2023-01-29T15:10:42;102582.84;;;4.60;68.21
29417;BME280;28421;51.030;4.006;2023-01-29T15:13:23;102580.69;;;4.67;68.46
29417;BME280;28421;51.030;4.006;2023-01-29T15:15:56;102525.94;;;4.47;68.22
29417;BME280;28421;51.030;4.006;2023-01-29T15:18:30;102572.81;;;4.80;68.03
29417;BME280;28421;51.030;4.006;2023-01-29T15:21:10;102531.09;;;4.50;68.21
29417;BME280;28421;51.030;4.006;2023-01-29T15:23:37;102544.34;;;4.66;68.45
29417;BME280;28421;51.030;4.006;2023-01-29T15:26:07;102500.47;;;4.57;68.12
29417;BME280;28421;51.030;4.006;2023-01-29T15:28:36;102539.03;;;4.80;68.00
29417;BME280;28421;51.030;4.006;2023-01-29T15:31:05;102538.94;;;4.67;68.30
29417;BME280;28421;51.030;4.006;2023-01-29T15:33:36;102524.63;;;4.54;68.19
29417;BME280;28421;51.030;4.006;2023-01-29T15:36:03;102526.56;;;4.66;68.50
29417;BME280;28421;51.030;4.006;2023-01-29T15:38:30;102543.66;;;4.48;68.84
29417;BME280;28421;51.030;4.006;2023-01-29T15:41:01;102537.50;;;4.62;68.76
29417;BME280;28421;51.030;4.006;2023-01-29T15:43:34;102553.03;;;4.69;68.92
29417;BME280;28421;51.030;4.006;2023-01-29T15:46:06;102512.22;;;4.39;69.55
29417;BME280;28421;51.030;4.006;2023-01-29T15:48:37;102499.06;;;4.21;69.70
29417;BME280;28421;51.030;4.006;2023-01-29T15:51:12;102538.06;;;4.53;69.99
29417;BME280;28421;51.030;4.006;2023-01-29T15:56:16;102503.88;;;4.45;69.74
29417;BME280;28421;51.030;4.006;2023-01-29T15:58:46;102481.72;;;4.44;69.66
29417;BME280;28421;51.030;4.006;2023-01-29T16:01:12;102535.59;;;4.64;69.84
29417;BME280;28421;51.030;4.006;2023-01-29T16:03:38;102500.66;;;4.40;69.98
29417;BME280;28421;51.030;4.006;2023-01-29T16:06:04;102490.63;;;4.43;70.29
29417;BME280;28421;51.030;4.006;2023-01-29T16:08:31;102475.41;;;4.31;69.98
29417;BME280;28421;51.030;4.006;2023-01-29T16:11:00;102520.72;;;4.60;70.20
29417;BME280;28421;51.030;4.006;2023-01-29T16:13:28;102501.44;;;4.56;70.24
29417;BME280;28421;51.030;4.006;2023-01-29T16:18:40;102516.97;;;4.34;70.37
29417;BME280;28421;51.030;4.006;2023-01-29T16:21:16;102489.41;;;4.05;70.68
29417;BME280;28421;51.030;4.006;2023-01-29T16:23:49;102504.75;;;4.15;70.98
29417;BME280;28421;51.030;4.006;2023-01-29T16:26:19;102473.38;;;3.90;71.06
29417;BME280;28421;51.030;4.006;2023-01-29T16:28:46;102478.00;;;4.03;70.95
29417;BME280;28421;51.030;4.006;2023-01-29T16:31:13;102503.44;;;4.22;70.76
29417;BME280;28421;51.030;4.006;2023-01-29T16:33:44;102513.63;;;4.30;70.65
29417;BME280;28421;51.030;4.006;2023-01-29T16:36:16;102436.34;;;3.71;71.13
29417;BME280;28421;51.030;4.006;2023-01-29T16:38:46;102461.09;;;3.88;71.08
29417;BME280;28421;51.030;4.006;2023-01-29T16:43:48;102459.84;;;3.63;72.17
29417;BME280;28421;51.030;4.006;2023-01-29T16:46:35;102489.25;;;3.92;71.53
29417;BME280;28421;51.030;4.006;2023-01-29T16:49:40;102488.13;;;3.96;71.47
29417;BME280;28421;51.030;4.006;2023-01-29T16:51:49;102477.94;;;3.72;72.35
29417;BME280;28421;51.030;4.006;2023-01-29T16:54:14;102452.47;;;3.68;71.96
29417;BME280;28421;51.030;4.006;2023-01-29T16:56:47;102450.16;;;3.62;72.79
29417;BME280;28421;51.030;4.006;2023-01-29T16:59:20;102465.53;;;3.57;72.79
29417;BME280;28421;51.030;4.006;2023-01-29T17:01:53;102454.38;;;3.66;72.96
29417;BME280;28421;51.030;4.006;2023-01-29T17:04:19;102430.88;;;3.59;72.76
29417;BME280;28421;51.030;4.006;2023-01-29T17:06:48;102448.94;;;3.68;72.94
29417;BME280;28421;51.030;4.006;2023-01-29T17:09:26;102499.31;;;3.87;73.18
29417;BME280;28421;51.030;4.006;2023-01-29T17:11:55;102460.53;;;3.67;72.78
29417;BME280;28421;51.030;4.006;2023-01-29T17:14:22;102496.47;;;3.90;73.17
29417;BME280;28421;51.030;4.006;2023-01-29T17:17:04;102490.91;;;3.79;73.05
29417;BME280;28421;51.030;4.006;2023-01-29T17:19:30;102489.97;;;3.64;73.67
29417;BME280;28421;51.030;4.006;2023-01-29T17:21:56;102427.25;;;3.44;73.86
29417;BME280;28421;51.030;4.006;2023-01-29T17:24:24;102452.03;;;3.60;73.90
29417;BME280;28421;51.030;4.006;2023-01-29T17:26:50;102474.38;;;3.73;73.70
29417;BME280;28421;51.030;4.006;2023-01-29T17:29:28;102457.88;;;3.51;73.92
29417;BME280;28421;51.030;4.006;2023-01-29T17:31:53;102476.06;;;3.59;74.39
29417;BME280;28421;51.030;4.006;2023-01-29T17:34:20;102481.56;;;3.71;74.65
29417;BME280;28421;51.030;4.006;2023-01-29T17:36:46;102478.72;;;3.74;75.17
29417;BME280;28421;51.030;4.006;2023-01-29T17:39:17;102469.69;;;3.77;74.70
29417;BME280;28421;51.030;4.006;2023-01-29T17:41:54;102448.25;;;3.64;74.92
29417;BME280;28421;51.030;4.006;2023-01-29T17:44:21;102463.19;;;3.67;75.59
29417;BME280;28421;51.030;4.006;2023-01-29T17:46:47;102418.53;;;3.42;75.83
29417;BME280;28421;51.030;4.006;2023-01-29T17:49:27;102454.78;;;3.74;75.35
29417;BME280;28421;51.030;4.006;2023-01-29T17:51:54;102461.06;;;3.73;75.48
29417;BME280;28421;51.030;4.006;2023-01-29T17:54:21;102433.00;;;3.52;75.73
29417;BME280;28421;51.030;4.006;2023-01-29T17:56:47;102448.41;;;3.77;75.92
29417;BME280;28421;51.030;4.006;2023-01-29T17:59:13;102455.91;;;3.70;76.00
29417;BME280;28421;51.030;4.006;2023-01-29T18:01:39;102434.69;;;3.69;76.14
29417;BME280;28421;51.030;4.006;2023-01-29T18:04:05;102394.00;;;3.53;76.06
29417;BME280;28421;51.030;4.006;2023-01-29T18:06:31;102404.72;;;3.51;76.33
29417;BME280;28421;51.030;4.006;2023-01-29T18:08:57;102440.81;;;3.71;77.01
29417;BME280;28421;51.030;4.006;2023-01-29T18:11:22;102384.66;;;3.45;77.06
29417;BME280;28421;51.030;4.006;2023-01-29T18:13:48;102443.09;;;3.77;77.00
29417;BME280;28421;51.030;4.006;2023-01-29T18:16:13;102410.53;;;3.58;77.33
29417;BME280;28421;51.030;4.006;2023-01-29T18:18:39;102414.38;;;3.68;77.57
29417;BME280;28421;51.030;4.006;2023-01-29T18:21:05;102416.72;;;3.58;77.27
29417;BME280;28421;51.030;4.006;2023-01-29T18:23:35;102427.06;;;3.79;77.27
29417;BME280;28421;51.030;4.006;2023-01-29T18:26:00;102433.91;;;3.83;77.39
29417;BME280;28421;51.030;4.006;2023-01-29T18:28:26;102357.56;;;3.39;77.42
29417;BME280;28421;51.030;4.006;2023-01-29T18:30:51;102372.94;;;3.64;77.19
29417;BME280;28421;51.030;4.006;2023-01-29T18:33:17;102433.59;;;4.03;77.16
29417;BME280;28421;51.030;4.006;2023-01-29T18:35:43;102403.16;;;3.93;77.04
29417;BME280;28421;51.030;4.006;2023-01-29T18:38:09;102372.38;;;3.73;77.18
29417;BME280;28421;51.030;4.006;2023-01-29T18:40:34;102368.28;;;3.67;77.11
29417;BME280;28421;51.030;4.006;2023-01-29T18:43:09;102407.28;;;3.98;77.13
29417;BME280;28421;51.030;4.006;2023-01-29T18:45:34;102379.56;;;3.87;76.89
29417;BME280;28421;51.030;4.006;2023-01-29T18:48:00;102394.03;;;3.97;76.67
29417;BME280;28421;51.030;4.006;2023-01-29T18:50:25;102335.03;;;3.60;76.61
29417;BME280;28421;51.030;4.006;2023-01-29T18:52:52;102399.06;;;4.02;76.60
29417;BME280;28421;51.030;4.006;2023-01-29T18:55:18;102422.41;;;4.12;76.60
29417;BME280;28421;51.030;4.006;2023-01-29T18:57:49;102413.56;;;4.12;76.89
29417;BME280;28421;51.030;4.006;2023-01-29T19:00:56;102351.16;;;3.87;76.46
29417;BME280;28421;51.030;4.006;2023-01-29T19:03:35;102391.94;;;4.02;77.11
29417;BME280;28421;51.030;4.006;2023-01-29T19:06:30;102324.22;;;3.63;77.80
29417;BME280;28421;51.030;4.006;2023-01-29T19:08:59;102412.94;;;3.92;78.73
29417;BME280;28421;51.030;4.006;2023-01-29T19:11:24;102346.28;;;3.80;79.12
29417;BME280;28421;51.030;4.006;2023-01-29T19:13:50;102349.13;;;3.77;79.35
29417;BME280;28421;51.030;4.006;2023-01-29T19:16:15;102337.34;;;3.66;79.58